sensor_id;sensor_type;location;lat;lon;timestamp;P1;durP1;ratioP1;P2;durP2;ratioP2
18280;SDS011;9266;51.132;17.062;2024-02-21T00:01:51;13.07;;;6.07;;
18280;SDS011;9266;51.132;17.062;2024-02-21T00:04:18;14.10;;;6.23;;
18280;SDS011;9266;51.132;17.062;2024-02-21T00:06:45;15.90;;;5.90;;
18280;SDS011;9266;51.132;17.062;2024-02-21T00:09:12;17.77;;;5.83;;
18280;SDS011;9266;51.132;17.062;2024-02-21T00:11:40;17.37;;;5.70;;
18280;SDS011;9266;51.132;17.062;2024-02-21T00:14:07;13.73;;;5.30;;
18280;SDS011;9266;51.132;17.062;2024-02-21T00:16:34;13.63;;;5.10;;
18280;SDS011;9266;51.132;17.062;2024-02-21T00:19:01;17.37;;;6.00;;
18280;SDS011;9266;51.132;17.062;2024-02-21T00:21:29;17.93;;;5.93;;
18280;SDS011;9266;51.132;17.062;2024-02-21T00:23:56;15.67;;;5.40;;
18280;SDS011;9266;51.132;17.062;2024-02-21T00:26:22;14.30;;;5.77;;
18280;SDS011;9266;51.132;17.062;2024-02-21T00:28:52;12.40;;;5.00;;
18280;SDS011;9266;51.132;17.062;2024-02-21T00:31:19;15.20;;;5.80;;
18280;SDS011;9266;51.132;17.062;2024-02-21T00:33:46;21.87;;;6.03;;
18280;SDS011;9266;51.132;17.062;2024-02-21T00:36:13;12.07;;;5.50;;
18280;SDS011;9266;51.132;17.062;2024-02-21T00:38:41;12.33;;;5.63;;
18280;SDS011;9266;51.132;17.062;2024-02-21T00:41:08;16.57;;;5.80;;
18280;SDS011;9266;51.132;17.062;2024-02-21T00:43:35;19.83;;;6.07;;
18280;SDS011;9266;51.132;17.062;2024-02-21T00:46:03;12.10;;;5.30;;
18280;SDS011;9266;51.132;17.062;2024-02-21T00:48:32;14.90;;;6.03;;
18280;SDS011;9266;51.132;17.062;2024-02-21T00:51:00;14.13;;;5.90;;
18280;SDS011;9266;51.132;17.062;2024-02-21T00:53:27;14.50;;;5.87;;
18280;SDS011;9266;51.132;17.062;2024-02-21T00:55:54;13.37;;;5.70;;
18280;SDS011;9266;51.132;17.062;2024-02-21T00:58:22;12.07;;;5.60;;
18280;SDS011;9266;51.132;17.062;2024-02-21T01:00:49;16.70;;;6.43;;
18280;SDS011;9266;51.132;17.062;2024-02-21T01:03:17;14.10;;;6.13;;
18280;SDS011;9266;51.132;17.062;2024-02-21T01:05:44;12.50;;;5.87;;
18280;SDS011;9266;51.132;17.062;2024-02-21T01:08:11;16.33;;;6.17;;
18280;SDS011;9266;51.132;17.062;2024-02-21T01:10:38;17.73;;;6.47;;
18280;SDS011;9266;51.132;17.062;2024-02-21T01:13:05;19.27;;;6.00;;
18280;SDS011;9266;51.132;17.062;2024-02-21T01:15:32;17.87;;;6.17;;
18280;SDS011;9266;51.132;17.062;2024-02-21T01:17:59;13.10;;;5.43;;
18280;SDS011;9266;51.132;17.062;2024-02-21T01:20:27;17.57;;;6.53;;
18280;SDS011;9266;51.132;17.062;2024-02-21T01:22:54;16.90;;;5.90;;
18280;SDS011;9266;51.132;17.062;2024-02-21T01:25:21;17.00;;;6.23;;
18280;SDS011;9266;51.132;17.062;2024-02-21T01:27:49;15.07;;;5.27;;
18280;SDS011;9266;51.132;17.062;2024-02-21T01:30:17;21.23;;;5.87;;
18280;SDS011;9266;51.132;17.062;2024-02-21T01:32:44;14.73;;;6.07;;
18280;SDS011;9266;51.132;17.062;2024-02-21T01:35:11;19.27;;;6.77;;
18280;SDS011;9266;51.132;17.062;2024-02-21T01:37:39;16.33;;;6.10;;
18280;SDS011;9266;51.132;17.062;2024-02-21T01:40:06;17.73;;;6.67;;
18280;SDS011;9266;51.132;17.062;2024-02-21T01:42:37;19.10;;;6.10;;
18280;SDS011;9266;51.132;17.062;2024-02-21T01:45:05;19.07;;;6.57;;
18280;SDS011;9266;51.132;17.062;2024-02-21T01:47:32;15.33;;;6.13;;
18280;SDS011;9266;51.132;17.062;2024-02-21T01:49:59;14.40;;;6.03;;
18280;SDS011;9266;51.132;17.062;2024-02-21T01:52:27;17.57;;;6.20;;
18280;SDS011;9266;51.132;17.062;2024-02-21T01:54:56;19.80;;;7.70;;
18280;SDS011;9266;51.132;17.062;2024-02-21T01:57:23;16.47;;;6.40;;
18280;SDS011;9266;51.132;17.062;2024-02-21T01:59:50;16.27;;;6.73;;
18280;SDS011;9266;51.132;17.062;2024-02-21T02:02:18;14.43;;;6.23;;
18280;SDS011;9266;51.132;17.062;2024-02-21T02:04:45;19.93;;;6.73;;
18280;SDS011;9266;51.132;17.062;2024-02-21T02:07:12;19.70;;;7.10;;
18280;SDS011;9266;51.132;17.062;2024-02-21T02:09:39;16.33;;;6.97;;
18280;SDS011;9266;51.132;17.062;2024-02-21T02:12:08;19.17;;;6.87;;
18280;SDS011;9266;51.132;17.062;2024-02-21T02:14:35;14.67;;;5.93;;
18280;SDS011;9266;51.132;17.062;2024-02-21T02:17:02;19.40;;;6.80;;
18280;SDS011;9266;51.132;17.062;2024-02-21T02:19:29;13.23;;;6.53;;
18280;SDS011;9266;51.132;17.062;2024-02-21T02:21:58;17.67;;;6.63;;
18280;SDS011;9266;51.132;17.062;2024-02-21T02:24:34;16.67;;;6.60;;
18280;SDS011;9266;51.132;17.062;2024-02-21T02:27:01;18.97;;;6.70;;
18280;SDS011;9266;51.132;17.062;2024-02-21T02:29:28;17.67;;;6.97;;
18280;SDS011;9266;51.132;17.062;2024-02-21T02:31:55;18.77;;;6.87;;
18280;SDS011;9266;51.132;17.062;2024-02-21T02:34:21;16.83;;;6.50;;
18280;SDS011;9266;51.132;17.062;2024-02-21T02:36:47;15.87;;;6.87;;
18280;SDS011;9266;51.132;17.062;2024-02-21T02:39:14;18.07;;;7.10;;
18280;SDS011;9266;51.132;17.062;2024-02-21T02:41:43;16.23;;;6.87;;
18280;SDS011;9266;51.132;17.062;2024-02-21T02:44:10;19.03;;;7.57;;
18280;SDS011;9266;51.132;17.062;2024-02-21T02:46:37;18.37;;;6.93;;
18280;SDS011;9266;51.132;17.062;2024-02-21T02:49:06;16.30;;;7.40;;
18280;SDS011;9266;51.132;17.062;2024-02-21T02:51:33;16.73;;;7.20;;
18280;SDS011;9266;51.132;17.062;2024-02-21T02:54:00;16.77;;;7.13;;
18280;SDS011;9266;51.132;17.062;2024-02-21T02:56:28;15.77;;;6.93;;
18280;SDS011;9266;51.132;17.062;2024-02-21T02:58:56;16.50;;;7.47;;
18280;SDS011;9266;51.132;17.062;2024-02-21T03:01:23;14.70;;;7.40;;
18280;SDS011;9266;51.132;17.062;2024-02-21T03:03:50;15.27;;;8.10;;
18280;SDS011;9266;51.132;17.062;2024-02-21T03:06:17;19.83;;;8.13;;
18280;SDS011;9266;51.132;17.062;2024-02-21T03:08:44;19.20;;;7.83;;
18280;SDS011;9266;51.132;17.062;2024-02-21T03:11:11;16.60;;;7.53;;
18280;SDS011;9266;51.132;17.062;2024-02-21T03:13:38;13.70;;;7.43;;
18280;SDS011;9266;51.132;17.062;2024-02-21T03:16:06;16.30;;;7.57;;
18280;SDS011;9266;51.132;17.062;2024-02-21T03:18:33;15.73;;;8.40;;
18280;SDS011;9266;51.132;17.062;2024-02-21T03:21:01;15.57;;;7.93;;
18280;SDS011;9266;51.132;17.062;2024-02-21T03:23:28;13.93;;;8.10;;
18280;SDS011;9266;51.132;17.062;2024-02-21T03:25:55;16.07;;;7.67;;
18280;SDS011;9266;51.132;17.062;2024-02-21T03:28:22;14.00;;;7.60;;
18280;SDS011;9266;51.132;17.062;2024-02-21T03:30:49;16.30;;;8.30;;
18280;SDS011;9266;51.132;17.062;2024-02-21T03:33:17;17.47;;;7.57;;
18280;SDS011;9266;51.132;17.062;2024-02-21T03:35:45;18.33;;;8.23;;
18280;SDS011;9266;51.132;17.062;2024-02-21T03:38:12;19.77;;;8.50;;
18280;SDS011;9266;51.132;17.062;2024-02-21T03:40:39;17.70;;;7.57;;
18280;SDS011;9266;51.132;17.062;2024-02-21T03:43:06;16.03;;;8.10;;
18280;SDS011;9266;51.132;17.062;2024-02-21T03:45:33;15.37;;;7.70;;
18280;SDS011;9266;51.132;17.062;2024-02-21T03:48:00;19.70;;;8.10;;
18280;SDS011;9266;51.132;17.062;2024-02-21T03:50:28;16.47;;;8.00;;
18280;SDS011;9266;51.132;17.062;2024-02-21T03:52:55;17.43;;;7.77;;
18280;SDS011;9266;51.132;17.062;2024-02-21T03:55:22;18.33;;;8.03;;
18280;SDS011;9266;51.132;17.062;2024-02-21T03:57:49;11.93;;;7.53;;
18280;SDS011;9266;51.132;17.062;2024-02-21T04:00:16;18.13;;;7.73;;
18280;SDS011;9266;51.132;17.062;2024-02-21T04:02:44;15.63;;;7.50;;
18280;SDS011;9266;51.132;17.062;2024-02-21T04:05:11;16.83;;;8.07;;
18280;SDS011;9266;51.132;17.062;2024-02-21T04:07:42;13.63;;;7.80;;
18280;SDS011;9266;51.132;17.062;2024-02-21T04:10:09;13.83;;;7.90;;
18280;SDS011;9266;51.132;17.062;2024-02-21T04:12:37;11.53;;;6.97;;
18280;SDS011;9266;51.132;17.062;2024-02-21T04:15:04;15.37;;;8.00;;
18280;SDS011;9266;51.132;17.062;2024-02-21T04:17:31;16.77;;;7.90;;
18280;SDS011;9266;51.132;17.062;2024-02-21T04:20:01;13.40;;;7.63;;
18280;SDS011;9266;51.132;17.062;2024-02-21T04:22:30;15.40;;;7.77;;
18280;SDS011;9266;51.132;17.062;2024-02-21T04:25:00;14.57;;;8.20;;
18280;SDS011;9266;51.132;17.062;2024-02-21T04:27:27;16.27;;;9.13;;
18280;SDS011;9266;51.132;17.062;2024-02-21T04:29:55;19.60;;;9.20;;
18280;SDS011;9266;51.132;17.062;2024-02-21T04:32:22;14.47;;;8.20;;
18280;SDS011;9266;51.132;17.062;2024-02-21T04:34:49;17.03;;;9.00;;
18280;SDS011;9266;51.132;17.062;2024-02-21T04:37:16;16.10;;;8.03;;
18280;SDS011;9266;51.132;17.062;2024-02-21T04:39:44;17.33;;;8.27;;
18280;SDS011;9266;51.132;17.062;2024-02-21T04:42:12;15.43;;;9.33;;
18280;SDS011;9266;51.132;17.062;2024-02-21T04:44:39;15.47;;;8.47;;
18280;SDS011;9266;51.132;17.062;2024-02-21T04:47:06;19.33;;;10.40;;
18280;SDS011;9266;51.132;17.062;2024-02-21T04:49:33;15.20;;;9.00;;
18280;SDS011;9266;51.132;17.062;2024-02-21T04:52:01;16.13;;;8.63;;
18280;SDS011;9266;51.132;17.062;2024-02-21T04:54:28;14.93;;;8.30;;
18280;SDS011;9266;51.132;17.062;2024-02-21T04:56:55;15.07;;;8.50;;
18280;SDS011;9266;51.132;17.062;2024-02-21T04:59:24;15.53;;;8.43;;
18280;SDS011;9266;51.132;17.062;2024-02-21T05:01:51;13.57;;;7.90;;
18280;SDS011;9266;51.132;17.062;2024-02-21T05:04:19;17.33;;;7.63;;
18280;SDS011;9266;51.132;17.062;2024-02-21T05:06:46;19.20;;;9.40;;
18280;SDS011;9266;51.132;17.062;2024-02-21T05:09:13;13.63;;;7.80;;
18280;SDS011;9266;51.132;17.062;2024-02-21T05:11:41;15.93;;;7.77;;
18280;SDS011;9266;51.132;17.062;2024-02-21T05:14:07;14.27;;;8.50;;
18280;SDS011;9266;51.132;17.062;2024-02-21T05:16:36;14.60;;;7.77;;
18280;SDS011;9266;51.132;17.062;2024-02-21T05:19:04;10.77;;;7.13;;
18280;SDS011;9266;51.132;17.062;2024-02-21T05:21:31;11.60;;;6.87;;
18280;SDS011;9266;51.132;17.062;2024-02-21T05:23:58;11.53;;;7.33;;
18280;SDS011;9266;51.132;17.062;2024-02-21T05:26:26;13.20;;;7.60;;
18280;SDS011;9266;51.132;17.062;2024-02-21T05:28:54;12.30;;;7.00;;
18280;SDS011;9266;51.132;17.062;2024-02-21T05:31:21;13.53;;;7.10;;
18280;SDS011;9266;51.132;17.062;2024-02-21T05:33:49;16.27;;;7.83;;
18280;SDS011;9266;51.132;17.062;2024-02-21T05:36:16;8.87;;;6.50;;
18280;SDS011;9266;51.132;17.062;2024-02-21T05:38:43;12.00;;;7.40;;
18280;SDS011;9266;51.132;17.062;2024-02-21T05:41:10;11.47;;;7.63;;
18280;SDS011;9266;51.132;17.062;2024-02-21T05:43:37;12.83;;;7.10;;
18280;SDS011;9266;51.132;17.062;2024-02-21T05:46:04;13.50;;;7.53;;
18280;SDS011;9266;51.132;17.062;2024-02-21T05:48:31;13.33;;;8.47;;
18280;SDS011;9266;51.132;17.062;2024-02-21T05:51:01;12.80;;;7.33;;
18280;SDS011;9266;51.132;17.062;2024-02-21T05:53:28;14.97;;;7.10;;
18280;SDS011;9266;51.132;17.062;2024-02-21T05:55:55;13.17;;;7.23;;
18280;SDS011;9266;51.132;17.062;2024-02-21T05:58:22;13.90;;;7.57;;
18280;SDS011;9266;51.132;17.062;2024-02-21T06:00:49;11.63;;;6.70;;
18280;SDS011;9266;51.132;17.062;2024-02-21T06:03:16;13.23;;;6.83;;
18280;SDS011;9266;51.132;17.062;2024-02-21T06:05:43;11.07;;;7.73;;
18280;SDS011;9266;51.132;17.062;2024-02-21T06:08:11;9.63;;;7.23;;
18280;SDS011;9266;51.132;17.062;2024-02-21T06:10:38;11.80;;;7.07;;
18280;SDS011;9266;51.132;17.062;2024-02-21T06:13:05;15.17;;;7.80;;
18280;SDS011;9266;51.132;17.062;2024-02-21T06:15:32;11.63;;;7.07;;
18280;SDS011;9266;51.132;17.062;2024-02-21T06:17:59;10.13;;;6.80;;
18280;SDS011;9266;51.132;17.062;2024-02-21T06:20:26;9.17;;;6.80;;
18280;SDS011;9266;51.132;17.062;2024-02-21T06:22:53;12.77;;;7.57;;
18280;SDS011;9266;51.132;17.062;2024-02-21T06:25:22;10.13;;;7.57;;
18280;SDS011;9266;51.132;17.062;2024-02-21T06:27:49;12.03;;;7.30;;
18280;SDS011;9266;51.132;17.062;2024-02-21T06:30:16;11.40;;;6.30;;
18280;SDS011;9266;51.132;17.062;2024-02-21T06:32:43;12.67;;;7.10;;
18280;SDS011;9266;51.132;17.062;2024-02-21T06:35:10;15.63;;;8.03;;
18280;SDS011;9266;51.132;17.062;2024-02-21T06:37:37;11.93;;;7.47;;
18280;SDS011;9266;51.132;17.062;2024-02-21T06:40:04;12.93;;;8.03;;
18280;SDS011;9266;51.132;17.062;2024-02-21T06:42:34;19.10;;;8.60;;
18280;SDS011;9266;51.132;17.062;2024-02-21T06:45:01;13.43;;;7.80;;
18280;SDS011;9266;51.132;17.062;2024-02-21T06:47:28;12.50;;;7.83;;
18280;SDS011;9266;51.132;17.062;2024-02-21T06:49:55;17.30;;;9.37;;
18280;SDS011;9266;51.132;17.062;2024-02-21T06:52:21;13.60;;;7.77;;
18280;SDS011;9266;51.132;17.062;2024-02-21T06:54:49;16.43;;;8.20;;
18280;SDS011;9266;51.132;17.062;2024-02-21T06:57:16;13.63;;;7.70;;
18280;SDS011;9266;51.132;17.062;2024-02-21T06:59:45;11.97;;;7.20;;
18280;SDS011;9266;51.132;17.062;2024-02-21T07:02:12;13.17;;;7.33;;
18280;SDS011;9266;51.132;17.062;2024-02-21T07:04:39;13.63;;;7.80;;
18280;SDS011;9266;51.132;17.062;2024-02-21T07:07:05;14.67;;;8.47;;
18280;SDS011;9266;51.132;17.062;2024-02-21T07:09:33;14.23;;;7.77;;
18280;SDS011;9266;51.132;17.062;2024-02-21T07:12:00;13.13;;;8.07;;
18280;SDS011;9266;51.132;17.062;2024-02-21T07:14:27;14.13;;;7.43;;
18280;SDS011;9266;51.132;17.062;2024-02-21T07:16:56;14.57;;;7.77;;
18280;SDS011;9266;51.132;17.062;2024-02-21T07:19:23;15.53;;;7.77;;
18280;SDS011;9266;51.132;17.062;2024-02-21T07:21:50;17.07;;;7.90;;
18280;SDS011;9266;51.132;17.062;2024-02-21T07:24:17;15.93;;;7.67;;
18280;SDS011;9266;51.132;17.062;2024-02-21T07:26:44;14.83;;;8.07;;
18280;SDS011;9266;51.132;17.062;2024-02-21T07:29:11;16.73;;;8.40;;
18280;SDS011;9266;51.132;17.062;2024-02-21T07:31:38;13.50;;;7.87;;
18280;SDS011;9266;51.132;17.062;2024-02-21T07:34:08;16.13;;;8.20;;
18280;SDS011;9266;51.132;17.062;2024-02-21T07:36:35;13.63;;;7.70;;
18280;SDS011;9266;51.132;17.062;2024-02-21T07:39:04;13.83;;;8.63;;
18280;SDS011;9266;51.132;17.062;2024-02-21T07:41:31;18.43;;;8.80;;
18280;SDS011;9266;51.132;17.062;2024-02-21T07:43:59;22.03;;;9.40;;
18280;SDS011;9266;51.132;17.062;2024-02-21T07:46:28;13.93;;;8.77;;
18280;SDS011;9266;51.132;17.062;2024-02-21T07:48:55;19.27;;;10.00;;
18280;SDS011;9266;51.132;17.062;2024-02-21T07:51:23;17.77;;;8.97;;
18280;SDS011;9266;51.132;17.062;2024-02-21T07:53:54;20.53;;;9.47;;
18280;SDS011;9266;51.132;17.062;2024-02-21T07:56:21;15.77;;;8.07;;
18280;SDS011;9266;51.132;17.062;2024-02-21T07:58:48;16.47;;;8.60;;
18280;SDS011;9266;51.132;17.062;2024-02-21T08:01:17;20.27;;;13.00;;
18280;SDS011;9266;51.132;17.062;2024-02-21T08:03:45;19.53;;;9.57;;
18280;SDS011;9266;51.132;17.062;2024-02-21T08:06:13;17.50;;;9.20;;
18280;SDS011;9266;51.132;17.062;2024-02-21T08:08:41;17.33;;;8.83;;
18280;SDS011;9266;51.132;17.062;2024-02-21T08:11:08;17.73;;;8.67;;
18280;SDS011;9266;51.132;17.062;2024-02-21T08:13:35;14.87;;;8.90;;
18280;SDS011;9266;51.132;17.062;2024-02-21T08:16:02;14.53;;;8.47;;
18280;SDS011;9266;51.132;17.062;2024-02-21T08:18:29;19.20;;;9.07;;
18280;SDS011;9266;51.132;17.062;2024-02-21T08:20:56;15.20;;;8.53;;
18280;SDS011;9266;51.132;17.062;2024-02-21T08:23:23;17.47;;;8.93;;
18280;SDS011;9266;51.132;17.062;2024-02-21T08:25:52;16.97;;;8.50;;
18280;SDS011;9266;51.132;17.062;2024-02-21T08:28:19;16.20;;;8.37;;
18280;SDS011;9266;51.132;17.062;2024-02-21T08:30:46;15.53;;;8.53;;
18280;SDS011;9266;51.132;17.062;2024-02-21T08:33:14;14.10;;;8.53;;
18280;SDS011;9266;51.132;17.062;2024-02-21T08:35:41;14.80;;;8.10;;
18280;SDS011;9266;51.132;17.062;2024-02-21T08:38:08;16.43;;;8.30;;
18280;SDS011;9266;51.132;17.062;2024-02-21T08:40:35;18.23;;;9.80;;
18280;SDS011;9266;51.132;17.062;2024-02-21T08:43:04;17.67;;;9.73;;
18280;SDS011;9266;51.132;17.062;2024-02-21T08:45:31;17.47;;;9.17;;
18280;SDS011;9266;51.132;17.062;2024-02-21T08:47:58;17.07;;;9.13;;
18280;SDS011;9266;51.132;17.062;2024-02-21T08:50:25;21.03;;;9.00;;
18280;SDS011;9266;51.132;17.062;2024-02-21T08:52:52;11.77;;;7.80;;
18280;SDS011;9266;51.132;17.062;2024-02-21T08:55:19;18.47;;;10.00;;
18280;SDS011;9266;51.132;17.062;2024-02-21T08:57:46;20.27;;;8.33;;
18280;SDS011;9266;51.132;17.062;2024-02-21T09:00:16;18.10;;;9.37;;
18280;SDS011;9266;51.132;17.062;2024-02-21T09:02:43;11.03;;;8.07;;
18280;SDS011;9266;51.132;17.062;2024-02-21T09:05:10;20.73;;;8.67;;
18280;SDS011;9266;51.132;17.062;2024-02-21T09:07:37;19.37;;;8.70;;
18280;SDS011;9266;51.132;17.062;2024-02-21T09:10:04;18.33;;;8.77;;
18280;SDS011;9266;51.132;17.062;2024-02-21T09:12:32;15.53;;;8.00;;
18280;SDS011;9266;51.132;17.062;2024-02-21T09:14:59;14.93;;;8.63;;
18280;SDS011;9266;51.132;17.062;2024-02-21T09:17:27;15.30;;;7.97;;
18280;SDS011;9266;51.132;17.062;2024-02-21T09:19:54;14.00;;;7.77;;
18280;SDS011;9266;51.132;17.062;2024-02-21T09:22:24;15.63;;;8.10;;
18280;SDS011;9266;51.132;17.062;2024-02-21T09:24:51;20.23;;;9.07;;
18280;SDS011;9266;51.132;17.062;2024-02-21T09:27:18;16.00;;;8.30;;
18280;SDS011;9266;51.132;17.062;2024-02-21T09:29:45;18.03;;;8.43;;
18280;SDS011;9266;51.132;17.062;2024-02-21T09:32:11;14.53;;;8.10;;
18280;SDS011;9266;51.132;17.062;2024-02-21T09:34:40;18.70;;;9.00;;
18280;SDS011;9266;51.132;17.062;2024-02-21T09:37:07;17.30;;;8.50;;
18280;SDS011;9266;51.132;17.062;2024-02-21T09:39:34;16.43;;;8.03;;
18280;SDS011;9266;51.132;17.062;2024-02-21T09:42:03;17.87;;;8.10;;
18280;SDS011;9266;51.132;17.062;2024-02-21T09:44:33;17.53;;;8.47;;
18280;SDS011;9266;51.132;17.062;2024-02-21T09:47:04;20.40;;;8.13;;
18280;SDS011;9266;51.132;17.062;2024-02-21T09:49:34;17.93;;;8.67;;
18280;SDS011;9266;51.132;17.062;2024-02-21T09:52:05;16.00;;;8.13;;
18280;SDS011;9266;51.132;17.062;2024-02-21T09:54:32;16.20;;;8.43;;
18280;SDS011;9266;51.132;17.062;2024-02-21T09:57:00;17.10;;;8.53;;
18280;SDS011;9266;51.132;17.062;2024-02-21T09:59:28;15.33;;;8.23;;
18280;SDS011;9266;51.132;17.062;2024-02-21T10:01:57;17.87;;;8.40;;
18280;SDS011;9266;51.132;17.062;2024-02-21T10:04:25;18.73;;;8.73;;
18280;SDS011;9266;51.132;17.062;2024-02-21T10:06:53;16.07;;;9.33;;
18280;SDS011;9266;51.132;17.062;2024-02-21T10:09:22;17.57;;;8.90;;
18280;SDS011;9266;51.132;17.062;2024-02-21T10:11:49;13.20;;;8.97;;
18280;SDS011;9266;51.132;17.062;2024-02-21T10:14:17;16.33;;;8.47;;
18280;SDS011;9266;51.132;17.062;2024-02-21T10:16:44;17.93;;;9.20;;
18280;SDS011;9266;51.132;17.062;2024-02-21T10:19:18;15.73;;;8.70;;
18280;SDS011;9266;51.132;17.062;2024-02-21T10:21:58;13.50;;;8.60;;
18280;SDS011;9266;51.132;17.062;2024-02-21T10:24:27;18.20;;;8.43;;
18280;SDS011;9266;51.132;17.062;2024-02-21T10:26:58;18.57;;;8.97;;
18280;SDS011;9266;51.132;17.062;2024-02-21T10:29:28;14.57;;;8.97;;
18280;SDS011;9266;51.132;17.062;2024-02-21T10:32:03;17.57;;;10.43;;
18280;SDS011;9266;51.132;17.062;2024-02-21T10:34:34;18.20;;;10.03;;
18280;SDS011;9266;51.132;17.062;2024-02-21T10:37:01;16.57;;;9.43;;
18280;SDS011;9266;51.132;17.062;2024-02-21T10:39:30;15.90;;;9.37;;
18280;SDS011;9266;51.132;17.062;2024-02-21T10:41:59;15.33;;;8.47;;
18280;SDS011;9266;51.132;17.062;2024-02-21T10:44:29;13.20;;;8.80;;
18280;SDS011;9266;51.132;17.062;2024-02-21T10:46:56;16.70;;;9.70;;
18280;SDS011;9266;51.132;17.062;2024-02-21T10:49:24;15.10;;;9.00;;
18280;SDS011;9266;51.132;17.062;2024-02-21T10:51:54;14.50;;;9.67;;
18280;SDS011;9266;51.132;17.062;2024-02-21T10:54:29;15.33;;;9.20;;
18280;SDS011;9266;51.132;17.062;2024-02-21T10:57:06;18.77;;;9.43;;
18280;SDS011;9266;51.132;17.062;2024-02-21T10:59:34;16.33;;;10.90;;
18280;SDS011;9266;51.132;17.062;2024-02-21T11:02:03;14.40;;;8.60;;
18280;SDS011;9266;51.132;17.062;2024-02-21T11:04:30;16.80;;;7.97;;
18280;SDS011;9266;51.132;17.062;2024-02-21T11:07:01;12.10;;;8.00;;
18280;SDS011;9266;51.132;17.062;2024-02-21T11:09:30;12.13;;;8.27;;
18280;SDS011;9266;51.132;17.062;2024-02-21T11:12:03;15.37;;;8.63;;
18280;SDS011;9266;51.132;17.062;2024-02-21T11:14:31;12.77;;;8.17;;
18280;SDS011;9266;51.132;17.062;2024-02-21T11:17:01;12.50;;;8.97;;
18280;SDS011;9266;51.132;17.062;2024-02-21T11:19:29;19.83;;;9.10;;
18280;SDS011;9266;51.132;17.062;2024-02-21T11:21:56;14.77;;;10.17;;
18280;SDS011;9266;51.132;17.062;2024-02-21T11:24:26;14.10;;;8.60;;
18280;SDS011;9266;51.132;17.062;2024-02-21T11:26:55;14.20;;;8.97;;
18280;SDS011;9266;51.132;17.062;2024-02-21T11:29:24;13.43;;;9.53;;
18280;SDS011;9266;51.132;17.062;2024-02-21T11:31:52;13.33;;;8.67;;
18280;SDS011;9266;51.132;17.062;2024-02-21T11:34:19;14.20;;;8.57;;
18280;SDS011;9266;51.132;17.062;2024-02-21T11:36:47;17.57;;;9.10;;
18280;SDS011;9266;51.132;17.062;2024-02-21T11:39:18;11.90;;;8.20;;
18280;SDS011;9266;51.132;17.062;2024-02-21T11:41:47;13.70;;;8.87;;
18280;SDS011;9266;51.132;17.062;2024-02-21T11:44:14;12.57;;;8.17;;
18280;SDS011;9266;51.132;17.062;2024-02-21T11:46:42;11.57;;;8.73;;
18280;SDS011;9266;51.132;17.062;2024-02-21T11:49:09;12.07;;;8.40;;
18280;SDS011;9266;51.132;17.062;2024-02-21T11:51:37;12.73;;;8.63;;
18280;SDS011;9266;51.132;17.062;2024-02-21T11:54:03;13.30;;;8.90;;
18280;SDS011;9266;51.132;17.062;2024-02-21T11:56:32;12.27;;;8.33;;
18280;SDS011;9266;51.132;17.062;2024-02-21T11:59:01;13.13;;;10.23;;
18280;SDS011;9266;51.132;17.062;2024-02-21T12:01:28;16.00;;;10.40;;
18280;SDS011;9266;51.132;17.062;2024-02-21T12:03:56;15.30;;;10.70;;
18280;SDS011;9266;51.132;17.062;2024-02-21T12:06:23;15.20;;;10.03;;
18280;SDS011;9266;51.132;17.062;2024-02-21T12:08:51;15.27;;;10.70;;
18280;SDS011;9266;51.132;17.062;2024-02-21T12:11:21;20.50;;;14.60;;
18280;SDS011;9266;51.132;17.062;2024-02-21T12:13:58;17.40;;;10.70;;
18280;SDS011;9266;51.132;17.062;2024-02-21T12:16:26;13.23;;;10.33;;
18280;SDS011;9266;51.132;17.062;2024-02-21T12:18:54;13.93;;;9.60;;
18280;SDS011;9266;51.132;17.062;2024-02-21T12:21:26;13.77;;;9.60;;
18280;SDS011;9266;51.132;17.062;2024-02-21T12:23:53;15.93;;;10.07;;
18280;SDS011;9266;51.132;17.062;2024-02-21T12:26:21;18.03;;;11.60;;
18280;SDS011;9266;51.132;17.062;2024-02-21T12:28:48;18.60;;;10.83;;
18280;SDS011;9266;51.132;17.062;2024-02-21T12:31:15;15.50;;;9.93;;
18280;SDS011;9266;51.132;17.062;2024-02-21T12:33:42;14.70;;;10.57;;
18280;SDS011;9266;51.132;17.062;2024-02-21T12:36:11;13.60;;;9.90;;
18280;SDS011;9266;51.132;17.062;2024-02-21T12:38:38;16.93;;;10.80;;
18280;SDS011;9266;51.132;17.062;2024-02-21T12:41:05;15.67;;;10.13;;
18280;SDS011;9266;51.132;17.062;2024-02-21T12:43:32;16.80;;;10.40;;
18280;SDS011;9266;51.132;17.062;2024-02-21T12:45:59;15.47;;;10.13;;
18280;SDS011;9266;51.132;17.062;2024-02-21T12:48:26;14.23;;;9.37;;
18280;SDS011;9266;51.132;17.062;2024-02-21T12:50:54;15.63;;;9.97;;
18280;SDS011;9266;51.132;17.062;2024-02-21T12:53:22;11.87;;;9.83;;
18280;SDS011;9266;51.132;17.062;2024-02-21T12:55:49;12.50;;;9.67;;
18280;SDS011;9266;51.132;17.062;2024-02-21T12:58:16;14.83;;;10.03;;
18280;SDS011;9266;51.132;17.062;2024-02-21T13:00:43;14.17;;;9.47;;
18280;SDS011;9266;51.132;17.062;2024-02-21T13:03:11;12.80;;;8.97;;
18280;SDS011;9266;51.132;17.062;2024-02-21T13:05:39;12.20;;;8.87;;
18280;SDS011;9266;51.132;17.062;2024-02-21T13:08:06;14.60;;;8.17;;
18280;SDS011;9266;51.132;17.062;2024-02-21T13:10:34;13.10;;;8.60;;
18280;SDS011;9266;51.132;17.062;2024-02-21T13:13:01;12.83;;;7.10;;
18280;SDS011;9266;51.132;17.062;2024-02-21T13:15:29;11.23;;;6.80;;
18280;SDS011;9266;51.132;17.062;2024-02-21T13:17:56;10.33;;;7.10;;
18280;SDS011;9266;51.132;17.062;2024-02-21T13:20:23;11.57;;;7.57;;
18280;SDS011;9266;51.132;17.062;2024-02-21T13:22:51;14.33;;;8.07;;
18280;SDS011;9266;51.132;17.062;2024-02-21T13:25:18;12.50;;;8.17;;
18280;SDS011;9266;51.132;17.062;2024-02-21T13:27:47;14.47;;;7.50;;
18280;SDS011;9266;51.132;17.062;2024-02-21T13:30:14;13.80;;;9.37;;
18280;SDS011;9266;51.132;17.062;2024-02-21T13:32:42;11.20;;;7.90;;
18280;SDS011;9266;51.132;17.062;2024-02-21T13:35:11;13.40;;;7.83;;
18280;SDS011;9266;51.132;17.062;2024-02-21T13:37:40;12.50;;;7.53;;
18280;SDS011;9266;51.132;17.062;2024-02-21T13:40:07;15.47;;;10.80;;
18280;SDS011;9266;51.132;17.062;2024-02-21T13:42:35;15.33;;;10.63;;
18280;SDS011;9266;51.132;17.062;2024-02-21T13:45:04;10.27;;;6.87;;
18280;SDS011;9266;51.132;17.062;2024-02-21T13:47:32;12.23;;;7.23;;
18280;SDS011;9266;51.132;17.062;2024-02-21T13:50:01;12.30;;;8.20;;
18280;SDS011;9266;51.132;17.062;2024-02-21T13:52:29;16.97;;;8.93;;
18280;SDS011;9266;51.132;17.062;2024-02-21T13:54:56;13.13;;;7.80;;
18280;SDS011;9266;51.132;17.062;2024-02-21T13:57:23;12.10;;;6.93;;
18280;SDS011;9266;51.132;17.062;2024-02-21T13:59:50;13.97;;;6.80;;
18280;SDS011;9266;51.132;17.062;2024-02-21T14:02:19;13.77;;;6.83;;
18280;SDS011;9266;51.132;17.062;2024-02-21T14:04:46;13.43;;;7.53;;
18280;SDS011;9266;51.132;17.062;2024-02-21T14:07:13;13.67;;;7.10;;
18280;SDS011;9266;51.132;17.062;2024-02-21T14:09:41;12.63;;;7.20;;
18280;SDS011;9266;51.132;17.062;2024-02-21T14:12:08;12.87;;;7.40;;
18280;SDS011;9266;51.132;17.062;2024-02-21T14:14:35;11.57;;;7.03;;
18280;SDS011;9266;51.132;17.062;2024-02-21T14:17:02;13.73;;;8.27;;
18280;SDS011;9266;51.132;17.062;2024-02-21T14:19:31;12.57;;;7.87;;
18280;SDS011;9266;51.132;17.062;2024-02-21T14:21:58;15.00;;;8.27;;
18280;SDS011;9266;51.132;17.062;2024-02-21T14:24:25;13.17;;;8.13;;
18280;SDS011;9266;51.132;17.062;2024-02-21T14:26:52;11.83;;;7.83;;
18280;SDS011;9266;51.132;17.062;2024-02-21T14:29:20;15.43;;;8.83;;
18280;SDS011;9266;51.132;17.062;2024-02-21T14:31:47;14.67;;;9.13;;
18280;SDS011;9266;51.132;17.062;2024-02-21T14:34:14;12.53;;;8.37;;
18280;SDS011;9266;51.132;17.062;2024-02-21T14:36:42;16.60;;;8.37;;